Time;durP1;ratioP1;P1;durP2;ratioP2;P2;SDS_P1;SDS_P2;PMS_P1;PMS_P2;Temp;Humidity;BMP_temperature;BMP_pressure;BME280_temperature;BME280_humidity;BME280_pressure;Samples;Min_cycle;Max_cycle;Signal;HPM_P1;HPM_P2
2022/07/29 00:02:01;;;;;;;;;;;;;;;25.80;54.91;98966.19;5055000;28;20519;-51
2022/07/29 00:04:26;;;;;;;;;;;;;;;26.49;53.26;98962.13;5053974;28;20561;-50
2022/07/29 00:06:51;;;;;;;;;;;;;;;26.96;54.12;98959.22;5052916;28;20660;-49
2022/07/29 00:09:16;;;;;;;;;;;;;;;27.15;54.10;98965.28;5053187;28;20289;-51
2022/07/29 00:11:42;;;;;;;;;;;;;;;27.24;54.98;98956.44;5054434;28;20341;-51
2022/07/29 00:14:07;;;;;;;;;;;;;;;27.19;54.38;98964.00;5054848;28;20001;-51
2022/07/29 00:16:32;;;;;;;;;;;;;;;26.91;53.07;98953.56;5052704;28;19971;-51
2022/07/29 00:18:57;;;;;;;;;;;;;;;26.14;56.96;98953.22;5053752;28;20393;-51
2022/07/29 00:21:23;;;;;;;;;;;;;;;26.46;54.97;98951.88;5054087;28;20786;-51
2022/07/29 00:23:48;;;;;;;;;;;;;;;26.54;54.92;98948.47;5053107;28;20518;-51
2022/07/29 00:26:13;;;;;;;;;;;;;;;26.48;53.81;98950.75;5052586;28;20459;-51
2022/07/29 00:28:38;;;;;;;;;;;;;;;25.66;57.24;98943.78;5055051;28;20370;-51
2022/07/29 00:31:03;;;;;;;;;;;;;;;25.38;59.15;98941.09;5052232;28;20452;-48
2022/07/29 00:33:29;;;;;;;;;;;;;;;25.36;59.55;98937.81;5050381;28;19916;-53
2022/07/29 00:35:54;;;;;;;;;;;;;;;26.21;57.21;98927.06;5048103;28;19920;-53
2022/07/29 00:38:20;;;;;;;;;;;;;;;26.60;55.40;98921.47;5054761;28;19921;-49
2022/07/29 00:40:45;;;;;;;;;;;;;;;26.66;54.85;98926.13;5050717;28;19928;-53
2022/07/29 00:43:11;;;;;;;;;;;;;;;26.55;60.69;98929.88;5053705;28;19916;-51
2022/07/29 00:45:36;;;;;;;;;;;;;;;26.29;62.21;98920.03;5052570;28;19921;-51
2022/07/29 00:48:03;;;;;;;;;;;;;;;26.23;61.78;98915.38;5052591;28;19924;-52
2022/07/29 00:50:28;;;;;;;;;;;;;;;25.73;65.34;98923.75;5053155;28;19916;-51
2022/07/29 00:52:53;;;;;;;;;;;;;;;25.69;65.62;98921.53;5051997;28;19927;-51
2022/07/29 00:55:19;;;;;;;;;;;;;;;25.69;64.22;98917.09;5052661;28;20386;-52
2022/07/29 00:57:44;;;;;;;;;;;;;;;26.06;63.26;98908.25;5050709;28;19939;-48
2022/07/29 01:00:11;;;;;;;;;;;;;;;26.21;61.29;98896.22;5052536;28;19940;-51
2022/07/29 01:02:36;;;;;;;;;;;;;;;26.34;61.61;98897.63;5051521;28;20350;-51
2022/07/29 01:05:02;;;;;;;;;;;;;;;25.43;59.92;98901.97;5052958;28;19924;-52
2022/07/29 01:07:27;;;;;;;;;;;;;;;25.33;63.90;98895.91;5050414;28;20011;-52
2022/07/29 01:09:53;;;;;;;;;;;;;;;25.49;64.46;98894.44;5049071;28;19925;-51
2022/07/29 01:12:23;;;;;;;;;;;;;;;25.45;63.98;98897.38;5051322;28;19927;-51
2022/07/29 01:14:48;;;;;;;;;;;;;;;26.02;63.79;98885.78;5051035;28;19920;-52
2022/07/29 01:17:16;;;;;;;;;;;;;;;26.02;64.73;98891.91;5048601;28;19975;-52
2022/07/29 01:19:47;;;;;;;;;;;;;;;25.85;65.39;98890.88;5049292;28;20633;-52
2022/07/29 01:22:19;;;;;;;;;;;;;;;25.93;66.46;98886.69;5052119;28;19916;-49
2022/07/29 01:25:03;;;;;;;;;;;;;;;25.75;66.64;98884.84;5050102;28;19924;-50
2022/07/29 01:27:31;;;;;;;;;;;;;;;25.96;65.61;98881.97;5050868;28;19948;-50
2022/07/29 01:29:57;;;;;;;;;;;;;;;25.71;65.76;98887.94;5051349;28;19943;-52
2022/07/29 01:32:24;;;;;;;;;;;;;;;25.49;67.48;98878.63;5050828;28;19956;-51
2022/07/29 01:34:49;;;;;;;;;;;;;;;25.74;67.21;98877.91;5049756;28;19975;-52
2022/07/29 01:37:18;;;;;;;;;;;;;;;25.37;63.98;98875.34;5053007;28;20014;-51
2022/07/29 01:39:44;;;;;;;;;;;;;;;25.82;65.48;98875.34;5049195;28;20398;-51
2022/07/29 01:42:21;;;;;;;;;;;;;;;25.93;65.52;98871.69;5051860;28;19982;-50
2022/07/29 01:44:54;;;;;;;;;;;;;;;25.85;65.77;98868.94;5049899;28;20872;-50
2022/07/29 01:47:20;;;;;;;;;;;;;;;25.75;69.29;98869.03;5052066;28;19920;-52
2022/07/29 01:49:47;;;;;;;;;;;;;;;25.41;70.94;98872.28;5052619;28;19931;-51
2022/07/29 01:52:19;;;;;;;;;;;;;;;24.74;69.41;98868.88;5051628;28;19927;-50
2022/07/29 01:54:46;;;;;;;;;;;;;;;24.59;69.85;98873.78;5052307;28;19921;-51
2022/07/29 01:57:13;;;;;;;;;;;;;;;25.04;70.40;98874.91;5049491;28;19920;-51
2022/07/29 01:59:38;;;;;;;;;;;;;;;25.54;67.79;98868.44;5050408;28;19943;-52
2022/07/29 02:02:03;;;;;;;;;;;;;;;25.74;67.21;98856.81;5052065;28;20792;-51
2022/07/29 02:04:29;;;;;;;;;;;;;;;25.87;65.45;98857.31;5050915;28;20672;-50
2022/07/29 02:06:54;;;;;;;;;;;;;;;25.62;66.69;98858.81;5048541;28;20344;-50
2022/07/29 02:09:19;;;;;;;;;;;;;;;25.56;68.70;98856.78;5047449;28;20005;-51
2022/07/29 02:11:47;;;;;;;;;;;;;;;25.64;66.91;98854.25;5050752;28;20835;-50
2022/07/29 02:14:13;;;;;;;;;;;;;;;25.18;68.70;98850.75;5051585;28;19921;-49
2022/07/29 02:16:38;;;;;;;;;;;;;;;25.37;68.11;98844.53;5050110;28;19920;-51
2022/07/29 02:19:03;;;;;;;;;;;;;;;25.37;70.14;98839.28;5050169;28;20010;-51
2022/07/29 02:21:29;;;;;;;;;;;;;;;24.98;69.20;98839.44;5052422;28;19951;-52
2022/07/29 02:23:54;;;;;;;;;;;;;;;25.15;68.34;98840.44;5050780;28;19963;-53
2022/07/29 02:26:20;;;;;;;;;;;;;;;25.35;67.28;98832.50;5049976;28;19960;-49
2022/07/29 02:28:45;;;;;;;;;;;;;;;24.14;75.45;98840.13;5050544;28;19972;-52
2022/07/29 02:31:11;;;;;;;;;;;;;;;24.38;74.51;98841.50;5050802;28;20011;-53
2022/07/29 02:33:36;;;;;;;;;;;;;;;24.02;73.09;98843.91;5051771;28;20332;-52
2022/07/29 02:36:01;;;;;;;;;;;;;;;24.77;70.14;98841.44;5049346;28;19943;-51
2022/07/29 02:41:12;;;;;;;;;;;;;;;24.87;66.09;98831.72;5050344;28;20005;-52
2022/07/29 02:43:37;;;;;;;;;;;;;;;24.87;63.67;98830.88;5050761;28;19920;-52
2022/07/29 02:46:04;;;;;;;;;;;;;;;24.70;65.44;98830.66;5049910;28;19924;-51
2022/07/29 02:48:34;;;;;;;;;;;;;;;25.20;64.78;98829.50;5052707;28;20507;-51
2022/07/29 02:51:07;;;;;;;;;;;;;;;25.15;64.38;98829.09;5048653;28;19920;-52
2022/07/29 02:53:33;;;;;;;;;;;;;;;25.19;65.46;98830.50;5050170;28;19920;-51
2022/07/29 02:56:04;;;;;;;;;;;;;;;25.18;65.09;98836.69;5051962;28;19921;-51
2022/07/29 02:58:33;;;;;;;;;;;;;;;24.98;64.86;98831.53;5053000;28;19982;-52
2022/07/29 03:01:00;;;;;;;;;;;;;;;25.15;65.91;98831.72;5055220;28;19928;-50
2022/07/29 03:03:26;;;;;;;;;;;;;;;25.38;64.76;98840.91;5054360;28;19924;-51
2022/07/29 03:05:55;;;;;;;;;;;;;;;25.36;65.45;98835.00;5054075;28;19929;-49
2022/07/29 03:08:20;;;;;;;;;;;;;;;24.94;63.41;98838.06;5054045;28;20037;-51
2022/07/29 03:10:45;;;;;;;;;;;;;;;24.85;66.90;98833.66;5053719;28;20643;-48
2022/07/29 03:13:12;;;;;;;;;;;;;;;25.05;65.69;98834.41;5055084;28;21204;-48
2022/07/29 03:15:37;;;;;;;;;;;;;;;23.87;69.78;98837.38;5054100;28;19924;-50
2022/07/29 03:18:02;;;;;;;;;;;;;;;24.75;68.40;98838.97;5054180;28;19921;-51
2022/07/29 03:20:27;;;;;;;;;;;;;;;24.81;64.57;98845.44;5056254;28;19928;-47
2022/07/29 03:22:53;;;;;;;;;;;;;;;25.13;65.50;98841.56;5054158;28;19920;-51
2022/07/29 03:25:19;;;;;;;;;;;;;;;25.35;65.70;98843.03;5056153;28;20095;-48
2022/07/29 03:27:44;;;;;;;;;;;;;;;25.19;66.43;98841.84;5054898;28;19924;-52
2022/07/29 03:30:10;;;;;;;;;;;;;;;25.27;67.28;98843.75;5055569;28;20239;-50
2022/07/29 03:32:36;;;;;;;;;;;;;;;25.27;69.43;98849.03;5054990;28;20929;-49
2022/07/29 03:35:01;;;;;;;;;;;;;;;25.23;70.77;98843.22;5056132;28;19927;-49
2022/07/29 03:37:27;;;;;;;;;;;;;;;25.24;71.11;98844.06;5054076;28;19916;-51
2022/07/29 03:39:52;;;;;;;;;;;;;;;25.13;69.77;98838.94;5054403;28;19920;-50
2022/07/29 03:42:18;;;;;;;;;;;;;;;25.00;72.15;98834.03;5053440;28;20276;-51
2022/07/29 03:44:44;;;;;;;;;;;;;;;25.26;71.59;98828.94;5055696;28;19931;-50
2022/07/29 03:47:09;;;;;;;;;;;;;;;24.94;70.43;98821.44;5036360;28;19917;-51
2022/07/29 03:49:34;;;;;;;;;;;;;;;24.74;69.48;98815.38;5053634;28;19920;-49
2022/07/29 03:51:59;;;;;;;;;;;;;;;23.91;74.27;98818.56;5053588;28;19932;-51
2022/07/29 03:54:25;;;;;;;;;;;;;;;24.45;71.39;98810.16;5053186;28;19963;-52
2022/07/29 03:56:50;;;;;;;;;;;;;;;22.85;77.38;98814.66;5053064;28;19943;-49
2022/07/29 03:59:16;;;;;;;;;;;;;;;22.38;86.64;98822.16;5052280;28;19972;-49
2022/07/29 04:01:41;;;;;;;;;;;;;;;23.85;84.93;98794.59;5053695;28;19959;-49
2022/07/29 04:04:06;;;;;;;;;;;;;;;24.53;81.31;98791.91;5055785;28;19959;-49
2022/07/29 04:06:42;;;;;;;;;;;;;;;24.42;76.78;98787.59;5053936;28;20027;-51
2022/07/29 04:09:07;;;;;;;;;;;;;;;24.63;74.53;98793.53;5051769;28;19920;-52
2022/07/29 04:11:32;;;;;;;;;;;;;;;23.63;84.08;98814.91;5055255;28;19970;-51
2022/07/29 04:13:57;;;;;;;;;;;;;;;23.59;88.00;98818.78;5053726;28;20021;-49
2022/07/29 04:16:23;;;;;;;;;;;;;;;23.26;92.59;98823.41;5055566;28;20011;-49
2022/07/29 04:18:48;;;;;;;;;;;;;;;23.07;90.83;98825.97;5052131;28;20012;-52
2022/07/29 04:21:13;;;;;;;;;;;;;;;23.85;89.01;98810.38;5053860;28;19928;-51
2022/07/29 04:23:39;;;;;;;;;;;;;;;23.76;86.09;98812.84;5053868;28;20058;-52
2022/07/29 04:26:04;;;;;;;;;;;;;;;24.29;83.07;98806.34;5053457;28;19939;-51
2022/07/29 04:28:30;;;;;;;;;;;;;;;24.74;82.45;98802.22;5053334;28;20019;-52
2022/07/29 04:30:55;;;;;;;;;;;;;;;25.00;80.58;98792.69;5052242;28;20060;-50
2022/07/29 04:33:20;;;;;;;;;;;;;;;25.05;81.08;98793.06;5053672;28;19926;-50
2022/07/29 04:35:45;;;;;;;;;;;;;;;24.62;80.75;98802.41;5053625;28;19920;-50
2022/07/29 04:38:11;;;;;;;;;;;;;;;24.78;78.39;98800.97;5051301;28;20022;-50
2022/07/29 04:40:36;;;;;;;;;;;;;;;25.12;78.78;98805.69;5052522;28;20982;-50
2022/07/29 04:43:01;;;;;;;;;;;;;;;25.05;76.21;98814.16;5053896;28;19924;-48
2022/07/29 04:45:27;;;;;;;;;;;;;;;25.16;77.71;98804.41;5054153;28;19924;-50
2022/07/29 04:47:52;;;;;;;;;;;;;;;24.99;74.77;98808.63;5053300;28;19969;-48
2022/07/29 04:50:17;;;;;;;;;;;;;;;25.11;72.67;98801.38;5052469;28;20367;-48
2022/07/29 04:52:43;;;;;;;;;;;;;;;24.87;71.53;98805.38;5054731;28;19978;-49
2022/07/29 04:55:08;;;;;;;;;;;;;;;24.87;71.61;98815.91;5054419;28;19935;-51
2022/07/29 04:57:34;;;;;;;;;;;;;;;24.98;71.49;98807.00;5051620;28;19928;-50
2022/07/29 04:59:59;;;;;;;;;;;;;;;25.26;70.66;98815.75;5052104;28;19927;-51
2022/07/29 05:02:24;;;;;;;;;;;;;;;25.26;73.37;98815.75;5053083;28;21034;-52
2022/07/29 05:04:49;;;;;;;;;;;;;;;25.11;72.95;98823.31;5053541;28;20391;-52
2022/07/29 05:07:15;;;;;;;;;;;;;;;25.17;69.62;98817.41;5052376;28;19924;-51
2022/07/29 05:09:40;;;;;;;;;;;;;;;25.12;70.12;98819.69;5051539;28;20802;-52
2022/07/29 05:12:05;;;;;;;;;;;;;;;25.04;70.04;98828.31;5049147;28;19986;-48
2022/07/29 05:14:31;;;;;;;;;;;;;;;25.35;72.28;98822.78;5052097;28;19952;-51
2022/07/29 05:16:56;;;;;;;;;;;;;;;25.37;75.50;98834.00;5052983;28;20346;-51
2022/07/29 05:19:22;;;;;;;;;;;;;;;25.32;73.89;98817.81;5052856;28;19928;-50
2022/07/29 05:21:47;;;;;;;;;;;;;;;25.38;72.75;98821.63;5053930;28;19927;-50
2022/07/29 05:24:13;;;;;;;;;;;;;;;25.30;71.25;98822.38;5053855;28;20026;-52
2022/07/29 05:26:38;;;;;;;;;;;;;;;25.04;73.85;98819.56;5054476;28;20369;-50
2022/07/29 05:29:03;;;;;;;;;;;;;;;25.38;73.66;98817.19;5050823;28;19928;-50
2022/07/29 05:31:28;;;;;;;;;;;;;;;24.92;74.27;98823.38;5053526;28;20391;-53
2022/07/29 05:33:54;;;;;;;;;;;;;;;25.19;74.71;98815.50;5053710;28;19916;-53
2022/07/29 05:36:19;;;;;;;;;;;;;;;25.13;71.46;98823.13;5054369;28;19925;-51
2022/07/29 05:38:44;;;;;;;;;;;;;;;24.79;72.43;98818.41;5052458;28;19924;-52
2022/07/29 05:41:10;;;;;;;;;;;;;;;24.41;74.73;98825.44;5052468;28;19920;-52
2022/07/29 05:43:35;;;;;;;;;;;;;;;24.98;72.36;98823.63;5053428;28;20050;-48
2022/07/29 05:46:00;;;;;;;;;;;;;;;24.93;74.17;98823.22;5048739;28;19924;-52
2022/07/29 05:48:25;;;;;;;;;;;;;;;24.78;72.57;98827.31;5053499;28;20661;-49
2022/07/29 05:50:51;;;;;;;;;;;;;;;25.08;72.41;98817.47;5051442;28;19920;-50
2022/07/29 05:53:16;;;;;;;;;;;;;;;25.49;72.92;98825.88;5051844;28;20007;-52
2022/07/29 05:55:41;;;;;;;;;;;;;;;25.38;74.18;98829.56;5053718;28;19916;-51
2022/07/29 05:58:06;;;;;;;;;;;;;;;24.63;81.13;98846.22;5051790;28;20012;-50
2022/07/29 06:00:32;;;;;;;;;;;;;;;24.45;80.00;98844.41;5045020;28;20047;-52
2022/07/29 06:02:57;;;;;;;;;;;;;;;24.90;77.88;98852.47;5050559;28;19987;-52
2022/07/29 06:05:22;;;;;;;;;;;;;;;25.29;79.71;98860.25;5052680;28;19928;-51
2022/07/29 06:07:48;;;;;;;;;;;;;;;24.56;83.08;98866.19;5051994;28;19920;-51
2022/07/29 06:10:13;;;;;;;;;;;;;;;23.13;90.27;98888.50;5051234;28;19927;-51
2022/07/29 06:12:38;;;;;;;;;;;;;;;22.91;92.55;98892.91;5050188;28;20396;-51
2022/07/29 06:15:03;;;;;;;;;;;;;;;23.62;92.15;98886.03;5050126;28;20525;-52
2022/07/29 06:17:29;;;;;;;;;;;;;;;25.14;85.03;98867.78;5053921;28;19913;-50
2022/07/29 06:19:54;;;;;;;;;;;;;;;25.44;78.98;98857.97;5049658;28;20277;-52
2022/07/29 06:22:19;;;;;;;;;;;;;;;25.59;79.45;98884.66;5052234;28;20397;-53
2022/07/29 06:24:44;;;;;;;;;;;;;;;23.59;89.13;98908.97;5050739;28;19925;-51
2022/07/29 06:27:10;;;;;;;;;;;;;;;22.88;92.43;98914.19;5053628;28;19928;-51
2022/07/29 06:29:35;;;;;;;;;;;;;;;24.15;85.91;98889.19;5050724;28;19978;-55
2022/07/29 06:32:02;;;;;;;;;;;;;;;23.84;86.30;98901.59;5057277;28;20035;-52
2022/07/29 06:34:27;;;;;;;;;;;;;;;23.45;90.65;98926.94;5058507;28;19920;-50
2022/07/29 06:36:52;;;;;;;;;;;;;;;23.88;89.65;98917.94;5058585;28;19931;-51
2022/07/29 06:39:17;;;;;;;;;;;;;;;24.34;87.58;98912.03;5058912;28;20276;-49
2022/07/29 06:41:45;;;;;;;;;;;;;;;25.99;79.25;98901.94;5057683;28;19920;-52
2022/07/29 06:44:11;;;;;;;;;;;;;;;24.76;80.26;98906.44;5057726;28;19921;-53
2022/07/29 06:46:36;;;;;;;;;;;;;;;23.36;88.92;98921.50;5058472;28;19920;-51
2022/07/29 06:49:02;;;;;;;;;;;;;;;23.34;89.87;98931.31;5057734;28;19952;-52
2022/07/29 06:51:27;;;;;;;;;;;;;;;24.07;88.56;98931.13;5057753;28;20294;-52
2022/07/29 06:53:52;;;;;;;;;;;;;;;23.76;85.79;98928.56;5056439;28;19924;-51
2022/07/29 06:56:18;;;;;;;;;;;;;;;23.79;86.64;98925.69;5058456;28;19927;-52
2022/07/29 06:58:43;;;;;;;;;;;;;;;24.69;84.99;98920.34;5060001;28;20365;-51
2022/07/29 07:01:08;;;;;;;;;;;;;;;25.14;81.24;98922.31;5057381;28;19998;-52
2022/07/29 07:03:33;;;;;;;;;;;;;;;25.59;79.23;98922.44;5056774;28;19973;-52
2022/07/29 07:05:59;;;;;;;;;;;;;;;24.97;82.98;98926.50;5058210;28;19924;-52
2022/07/29 07:08:24;;;;;;;;;;;;;;;26.07;79.28;98920.50;5059477;28;20604;-52
2022/07/29 07:10:50;;;;;;;;;;;;;;;25.67;79.56;98921.69;5058996;28;19931;-50
2022/07/29 07:13:16;;;;;;;;;;;;;;;25.34;80.07;98931.00;5056273;28;19921;-52
2022/07/29 07:15:42;;;;;;;;;;;;;;;24.19;86.01;98943.16;5054773;28;19917;-52
2022/07/29 07:18:07;;;;;;;;;;;;;;;24.62;83.99;98941.97;5058614;28;19998;-51
2022/07/29 07:20:33;;;;;;;;;;;;;;;24.47;80.61;98940.72;5058052;28;19977;-53
2022/07/29 07:22:58;;;;;;;;;;;;;;;24.30;78.57;98930.88;5057596;28;19920;-52
2022/07/29 07:25:23;;;;;;;;;;;;;;;25.22;79.58;98938.25;5056420;28;19965;-52
2022/07/29 07:27:49;;;;;;;;;;;;;;;24.86;80.93;98935.44;5057292;28;19921;-52
2022/07/29 07:30:14;;;;;;;;;;;;;;;24.24;84.62;98944.56;5056517;28;19920;-53
2022/07/29 07:32:40;;;;;;;;;;;;;;;26.34;77.63;98922.22;5056469;28;19996;-50
2022/07/29 07:35:06;;;;;;;;;;;;;;;26.02;77.12;98933.28;5057231;28;19946;-53
2022/07/29 07:37:31;;;;;;;;;;;;;;;24.98;84.37;98936.91;5057778;28;19932;-53
2022/07/29 07:39:57;;;;;;;;;;;;;;;25.79;82.51;98931.03;5058280;28;19920;-51
2022/07/29 07:42:23;;;;;;;;;;;;;;;25.76;81.18;98928.72;5053753;28;20394;-53
2022/07/29 07:44:48;;;;;;;;;;;;;;;25.96;78.13;98923.34;5052389;28;20067;-52
2022/07/29 07:47:14;;;;;;;;;;;;;;;25.93;73.85;98918.34;5055475;28;19928;-52
2022/07/29 07:49:39;;;;;;;;;;;;;;;25.65;78.63;98915.72;5053530;28;20713;-52
2022/07/29 07:52:04;;;;;;;;;;;;;;;25.64;80.69;98920.16;5054637;28;19927;-53
2022/07/29 07:54:30;;;;;;;;;;;;;;;26.36;74.22;98911.50;5052674;28;19925;-53
2022/07/29 07:56:56;;;;;;;;;;;;;;;25.82;77.16;98907.03;5053419;28;20053;-51
2022/07/29 07:59:21;;;;;;;;;;;;;;;25.49;80.22;98910.25;5053593;28;19921;-53
2022/07/29 08:01:46;;;;;;;;;;;;;;;24.91;78.78;98900.75;5054680;28;20015;-52
2022/07/29 08:04:11;;;;;;;;;;;;;;;26.90;75.30;98896.41;5051850;28;19963;-51
2022/07/29 08:06:37;;;;;;;;;;;;;;;27.23;67.80;98892.16;5053205;28;19925;-53
2022/07/29 08:09:05;;;;;;;;;;;;;;;26.24;76.81;98906.44;5053785;28;19975;-54
2022/07/29 08:11:30;;;;;;;;;;;;;;;27.98;66.90;98877.34;5054944;28;19959;-53
2022/07/29 08:13:56;;;;;;;;;;;;;;;26.65;67.20;98888.31;5054408;28;20616;-53
2022/07/29 08:16:21;;;;;;;;;;;;;;;27.17;66.73;98891.94;5053387;28;19927;-52
2022/07/29 08:18:47;;;;;;;;;;;;;;;28.41;61.20;98884.16;5053920;28;20630;-53
2022/07/29 08:21:13;;;;;;;;;;;;;;;28.85;58.40;98882.97;5054048;28;20589;-53
2022/07/29 08:23:38;;;;;;;;;;;;;;;28.70;60.64;98888.97;5050943;28;19920;-53
2022/07/29 08:26:10;;;;;;;;;;;;;;;28.65;56.11;98896.59;5053143;28;19978;-55
2022/07/29 08:28:36;;;;;;;;;;;;;;;28.07;55.09;98894.91;5053744;28;20012;-52
2022/07/29 08:31:01;;;;;;;;;;;;;;;29.16;55.69;98889.19;5049991;28;19920;-54
2022/07/29 08:33:26;;;;;;;;;;;;;;;29.10;53.85;98889.91;5053888;28;20430;-53
2022/07/29 08:35:51;;;;;;;;;;;;;;;29.58;53.91;98895.16;5051973;28;20817;-53
2022/07/29 08:38:17;;;;;;;;;;;;;;;28.44;53.35;98886.50;5051006;28;20338;-52
2022/07/29 08:40:42;;;;;;;;;;;;;;;29.02;55.36;98889.88;5054317;28;20011;-53
2022/07/29 08:43:08;;;;;;;;;;;;;;;27.52;57.81;98899.69;5055039;28;20006;-54
2022/07/29 08:45:42;;;;;;;;;;;;;;;28.27;57.68;98898.88;5048912;28;20124;-54
2022/07/29 08:48:07;;;;;;;;;;;;;;;28.71;58.93;98897.72;5053353;28;19921;-54
2022/07/29 08:50:34;;;;;;;;;;;;;;;29.29;54.89;98895.81;5054304;28;20499;-54
2022/07/29 08:52:59;;;;;;;;;;;;;;;29.86;53.77;98898.19;5052118;28;19927;-54
2022/07/29 08:55:24;;;;;;;;;;;;;;;29.64;52.54;98897.13;5053053;28;19920;-54
2022/07/29 08:57:50;;;;;;;;;;;;;;;29.83;54.06;98898.53;5052371;28;19928;-55
2022/07/29 09:00:17;;;;;;;;;;;;;;;29.43;53.06;98894.25;5053212;28;19966;-53
2022/07/29 09:02:43;;;;;;;;;;;;;;;28.87;55.31;98892.41;5052372;28;20011;-54
2022/07/29 09:05:08;;;;;;;;;;;;;;;29.56;54.38;98895.34;5051388;28;19924;-54
2022/07/29 09:07:33;;;;;;;;;;;;;;;30.11;51.15;98890.06;5050535;28;19925;-55
2022/07/29 09:09:59;;;;;;;;;;;;;;;29.11;52.27;98896.03;5051976;28;20327;-53
2022/07/29 09:12:24;;;;;;;;;;;;;;;29.51;53.82;98896.84;5052442;28;19955;-55
2022/07/29 09:14:50;;;;;;;;;;;;;;;30.16;48.90;98893.81;5051725;28;19925;-55
2022/07/29 09:17:16;;;;;;;;;;;;;;;28.87;50.46;98902.19;5049690;28;19927;-54
2022/07/29 09:19:42;;;;;;;;;;;;;;;29.67;50.54;98899.41;5049998;28;20397;-55
2022/07/29 09:22:09;;;;;;;;;;;;;;;28.69;53.79;98897.06;5054236;28;19917;-54
2022/07/29 09:24:34;;;;;;;;;;;;;;;29.55;51.67;98895.50;5052223;28;19920;-54
2022/07/29 09:26:59;;;;;;;;;;;;;;;30.23;52.21;98894.78;5052138;28;19921;-55
2022/07/29 09:29:25;;;;;;;;;;;;;;;29.44;51.98;98893.25;5049406;28;19926;-54
2022/07/29 09:31:51;;;;;;;;;;;;;;;29.08;52.92;98891.91;5052771;28;20050;-55
2022/07/29 09:34:20;;;;;;;;;;;;;;;29.98;52.10;98896.78;5051784;28;19974;-55
2022/07/29 09:36:46;;;;;;;;;;;;;;;29.74;49.96;98902.22;5051079;28;19924;-55
2022/07/29 09:39:12;;;;;;;;;;;;;;;29.88;51.18;98890.88;5050661;28;19921;-55
2022/07/29 09:41:48;;;;;;;;;;;;;;;27.84;56.47;98900.81;5052073;28;19924;-55
2022/07/29 09:44:14;;;;;;;;;;;;;;;31.24;47.53;98887.34;5053372;28;19923;-56
2022/07/29 09:46:41;;;;;;;;;;;;;;;29.90;46.20;98893.34;5048808;28;19924;-56
2022/07/29 09:49:07;;;;;;;;;;;;;;;28.55;54.86;98895.94;5050024;28;19928;-54
2022/07/29 09:51:32;;;;;;;;;;;;;;;28.23;57.44;98900.19;5053169;28;19920;-55
2022/07/29 09:54:00;;;;;;;;;;;;;;;29.97;51.36;98895.13;5050601;28;19920;-56
2022/07/29 09:56:40;;;;;;;;;;;;;;;30.31;50.22;98891.28;5048767;28;20290;-56
2022/07/29 09:59:06;;;;;;;;;;;;;;;30.69;50.58;98890.41;5050689;28;19920;-55
2022/07/29 10:01:31;;;;;;;;;;;;;;;29.90;51.92;98883.56;5051143;28;20612;-56
2022/07/29 10:03:56;;;;;;;;;;;;;;;29.04;52.86;98898.50;5053766;28;19916;-56
2022/07/29 10:06:22;;;;;;;;;;;;;;;30.52;53.89;98898.56;5049733;28;19925;-56
2022/07/29 10:08:47;;;;;;;;;;;;;;;31.13;49.82;98884.31;5051711;28;19928;-56
2022/07/29 10:11:13;;;;;;;;;;;;;;;31.24;48.37;98886.53;5049374;28;19920;-56
2022/07/29 10:13:39;;;;;;;;;;;;;;;30.97;46.16;98885.34;5052098;28;19920;-56
2022/07/29 10:16:04;;;;;;;;;;;;;;;31.19;49.93;98883.59;5050527;28;19936;-56
2022/07/29 10:18:29;;;;;;;;;;;;;;;30.83;50.01;98886.94;5049101;28;19917;-56
2022/07/29 10:20:55;;;;;;;;;;;;;;;31.43;48.04;98875.34;5049383;28;19925;-56
2022/07/29 10:23:20;;;;;;;;;;;;;;;32.95;42.96;98868.09;5049978;28;19977;-56
2022/07/29 10:25:45;;;;;;;;;;;;;;;33.18;43.52;98865.97;5052134;28;20043;-54
2022/07/29 10:28:11;;;;;;;;;;;;;;;33.29;41.10;98873.44;5051832;28;19963;-56
2022/07/29 10:30:36;;;;;;;;;;;;;;;31.99;45.32;98874.72;5046673;28;19920;-57
2022/07/29 10:33:01;;;;;;;;;;;;;;;32.39;41.96;98859.09;5050201;28;19921;-57
2022/07/29 10:35:33;;;;;;;;;;;;;;;32.50;41.53;98855.91;5051142;28;19927;-57
2022/07/29 10:38:11;;;;;;;;;;;;;;;33.15;41.27;98865.56;5048791;28;19952;-57
2022/07/29 10:43:35;;;;;;;;;;;;;;;33.11;39.82;98867.81;5051488;28;19969;-57
2022/07/29 10:46:01;;;;;;;;;;;;;;;33.61;36.44;98855.09;5046995;28;20949;-57
2022/07/29 10:48:26;;;;;;;;;;;;;;;33.58;36.72;98863.50;5051425;28;19927;-57
2022/07/29 10:50:55;;;;;;;;;;;;;;;33.87;36.65;98866.84;5048678;28;19989;-56
2022/07/29 10:53:21;;;;;;;;;;;;;;;33.22;36.14;98864.56;5052766;28;19920;-56
2022/07/29 10:55:48;;;;;;;;;;;;;;;32.76;37.40;98857.13;5051340;28;19920;-57
2022/07/29 10:58:16;;;;;;;;;;;;;;;34.22;35.88;98853.34;5051174;28;20778;-57
2022/07/29 11:00:42;;;;;;;;;;;;;;;32.87;37.56;98856.56;5049482;28;20385;-57
2022/07/29 11:03:07;;;;;;;;;;;;;;;32.70;38.40;98852.56;5049480;28;19946;-57
2022/07/29 11:05:51;;;;;;;;;;;;;;;33.66;37.16;98847.28;5052241;28;19971;-57
2022/07/29 11:08:18;;;;;;;;;;;;;;;34.89;36.13;98860.28;5052161;28;19946;-57
2022/07/29 11:10:44;;;;;;;;;;;;;;;34.39;36.20;98859.91;5051739;28;19920;-57
2022/07/29 11:13:09;;;;;;;;;;;;;;;34.73;36.47;98856.19;5050083;28;21344;-55
2022/07/29 11:15:54;;;;;;;;;;;;;;;33.98;35.33;98852.88;5050860;28;19920;-57
2022/07/29 11:18:19;;;;;;;;;;;;;;;34.15;36.39;98851.50;5054989;28;19963;-58
2022/07/29 11:20:47;;;;;;;;;;;;;;;33.68;37.88;98861.25;5048326;28;20023;-57
2022/07/29 11:23:18;;;;;;;;;;;;;;;34.13;36.60;98848.19;5052103;28;19927;-57
2022/07/29 11:25:43;;;;;;;;;;;;;;;34.30;36.40;98853.13;5054432;28;19943;-58
2022/07/29 11:28:11;;;;;;;;;;;;;;;34.95;36.16;98859.44;5053846;28;19920;-58
2022/07/29 11:30:47;;;;;;;;;;;;;;;35.42;36.28;98864.63;5037327;28;20440;-58
2022/07/29 11:33:26;;;;;;;;;;;;;;;35.92;33.86;98855.94;5055898;28;19926;-55
2022/07/29 11:36:07;;;;;;;;;;;;;;;35.35;36.05;98859.34;5054230;28;20865;-57
2022/07/29 11:38:32;;;;;;;;;;;;;;;33.81;35.37;98848.97;5049508;28;19925;-57
2022/07/29 11:41:16;;;;;;;;;;;;;;;33.72;38.34;98857.16;5053355;28;19973;-57
2022/07/29 11:43:48;;;;;;;;;;;;;;;32.49;40.55;98859.56;5052220;28;19927;-57
2022/07/29 11:46:14;;;;;;;;;;;;;;;33.72;39.50;98869.69;5051700;28;20047;-54
2022/07/29 11:48:42;;;;;;;;;;;;;;;33.29;36.37;98859.25;5052147;28;19920;-54
2022/07/29 11:51:11;;;;;;;;;;;;;;;33.11;35.47;98852.59;5052955;28;19916;-54
2022/07/29 11:53:37;;;;;;;;;;;;;;;34.57;36.89;98857.44;5050850;28;19921;-55
2022/07/29 11:56:02;;;;;;;;;;;;;;;33.26;38.20;98852.47;5056017;28;19966;-54
2022/07/29 11:58:27;;;;;;;;;;;;;;;36.10;35.89;98850.63;5054092;28;19925;-54
2022/07/29 12:00:53;;;;;;;;;;;;;;;35.49;36.09;98853.88;5052556;28;19952;-54
2022/07/29 12:03:25;;;;;;;;;;;;;;;35.73;35.82;98850.50;5050538;28;19916;-58
2022/07/29 12:05:51;;;;;;;;;;;;;;;34.22;39.38;98848.00;5049217;28;19928;-58
2022/07/29 12:08:19;;;;;;;;;;;;;;;35.11;37.96;98850.16;5052005;28;19973;-58
2022/07/29 12:10:45;;;;;;;;;;;;;;;35.48;38.49;98853.06;5052115;28;19921;-58
2022/07/29 12:13:11;;;;;;;;;;;;;;;33.33;39.10;98850.66;5054007;28;19924;-59
2022/07/29 12:15:36;;;;;;;;;;;;;;;34.65;39.37;98844.91;5054903;28;19924;-58
2022/07/29 12:18:15;;;;;;;;;;;;;;;33.66;39.17;98852.63;5052723;28;19920;-58
2022/07/29 12:20:41;;;;;;;;;;;;;;;33.40;38.49;98847.19;5052015;28;20354;-58
2022/07/29 12:23:07;;;;;;;;;;;;;;;34.60;37.83;98850.03;5053988;28;20004;-58
2022/07/29 12:25:33;;;;;;;;;;;;;;;35.04;37.72;98856.56;5051183;28;19924;-58
2022/07/29 12:28:00;;;;;;;;;;;;;;;34.76;37.79;98855.81;5051467;28;19916;-58
2022/07/29 12:30:33;;;;;;;;;;;;;;;34.98;37.45;98853.66;5050016;28;19920;-58
2022/07/29 12:32:59;;;;;;;;;;;;;;;34.91;37.59;98847.50;5051033;28;20058;-58
2022/07/29 12:35:24;;;;;;;;;;;;;;;33.15;41.59;98853.06;5053605;28;19920;-58
2022/07/29 12:37:51;;;;;;;;;;;;;;;32.74;43.54;98856.50;5054472;28;19920;-58
2022/07/29 12:40:17;;;;;;;;;;;;;;;33.15;41.41;98857.56;5052673;28;19927;-60
2022/07/29 12:43:01;;;;;;;;;;;;;;;33.25;40.88;98856.16;5046715;28;19920;-58
2022/07/29 12:45:29;;;;;;;;;;;;;;;33.71;42.03;98855.53;5052501;28;19965;-58
2022/07/29 12:47:54;;;;;;;;;;;;;;;33.45;39.34;98852.75;5050210;28;19921;-58
2022/07/29 12:50:20;;;;;;;;;;;;;;;34.57;38.66;98841.38;5051561;28;20302;-59